createdAt,value
2023-03-21T00:01:53.653Z,8.60
2023-03-21T00:04:25.556Z,8.60
2023-03-21T00:06:52.889Z,8.60
2023-03-21T00:09:21.039Z,8.50
2023-03-21T00:11:48.554Z,8.60
2023-03-21T00:14:20.158Z,8.50
2023-03-21T00:16:53.629Z,8.60
2023-03-21T00:19:21.052Z,8.50
2023-03-21T00:22:08.676Z,8.50
2023-03-21T00:24:36.692Z,8.50
2023-03-21T00:27:29.890Z,8.60
2023-03-21T00:29:50.704Z,8.50
2023-03-21T00:32:18.812Z,8.50
2023-03-21T00:34:59.586Z,8.40
2023-03-21T00:37:32.506Z,8.50
2023-03-21T00:39:59.370Z,8.50
2023-03-21T00:42:26.483Z,8.50
2023-03-21T00:44:53.267Z,8.40
2023-03-21T00:47:20.858Z,8.50
2023-03-21T00:49:47.791Z,8.50
2023-03-21T00:52:22.157Z,8.40
2023-03-21T00:54:54.444Z,8.40
2023-03-21T00:57:29.280Z,8.40
2023-03-21T01:00:04.279Z,8.40
2023-03-21T01:02:31.128Z,8.40
2023-03-21T01:04:57.918Z,8.40
2023-03-21T01:07:24.750Z,8.40
2023-03-21T01:09:51.533Z,8.40
2023-03-21T01:12:18.380Z,8.40
2023-03-21T01:14:45.230Z,8.40
2023-03-21T01:17:12.066Z,8.30
2023-03-21T01:19:51.127Z,8.20
2023-03-21T01:22:19.312Z,8.20
2023-03-21T01:24:54.147Z,8.10
2023-03-21T01:27:23.803Z,8.10
2023-03-21T01:29:50.705Z,8.10
2023-03-21T01:32:17.612Z,8.10
2023-03-21T01:34:44.553Z,8.10
2023-03-21T01:37:11.432Z,8.10
2023-03-21T01:39:38.235Z,8.10
2023-03-21T01:42:05.162Z,8.00
2023-03-21T01:44:32.170Z,8.00
2023-03-21T01:47:10.395Z,8.00
2023-03-21T01:49:46.449Z,8.00
2023-03-21T01:52:30.038Z,8.00
2023-03-21T01:55:07.132Z,8.00
2023-03-21T01:57:52.224Z,8.00
2023-03-21T02:00:29.660Z,8.00
2023-03-21T02:03:11.094Z,8.00
2023-03-21T02:05:52.634Z,8.00
2023-03-21T02:08:22.284Z,8.00
2023-03-21T02:10:51.638Z,8.00
2023-03-21T02:13:18.708Z,7.90
2023-03-21T02:16:02.321Z,7.80
2023-03-21T02:18:36.575Z,7.80
2023-03-21T02:21:22.285Z,7.80
2023-03-21T02:24:17.910Z,7.90
2023-03-21T02:27:21.909Z,7.90
2023-03-21T02:30:06.361Z,7.90
2023-03-21T02:32:50.940Z,7.90
2023-03-21T02:35:26.360Z,7.80
2023-03-21T02:38:01.441Z,7.80
2023-03-21T02:40:52.941Z,7.80
2023-03-21T02:43:42.607Z,7.80
2023-03-21T02:46:15.991Z,7.80
2023-03-21T02:49:07.740Z,7.80
2023-03-21T02:51:37.583Z,7.70
2023-03-21T02:56:58.957Z,7.80
2023-03-21T02:59:27.537Z,7.70
2023-03-21T03:01:56.316Z,7.80
2023-03-21T03:04:28.142Z,7.80
2023-03-21T03:07:13.173Z,7.80
2023-03-21T03:10:03.099Z,7.80
2023-03-21T03:12:45.826Z,7.90
2023-03-21T03:15:22.138Z,7.90
2023-03-21T03:18:01.938Z,7.90
2023-03-21T03:20:39.048Z,7.80
2023-03-21T03:23:17.984Z,7.80
2023-03-21T03:25:51.053Z,7.80
2023-03-21T03:28:23.037Z,7.80
2023-03-21T03:31:07.374Z,7.70
2023-03-21T03:33:39.904Z,7.60
2023-03-21T03:36:18.815Z,7.70
2023-03-21T03:38:52.312Z,7.60
2023-03-21T03:41:25.643Z,7.70
2023-03-21T03:43:59.473Z,7.70
2023-03-21T03:46:37.901Z,7.70
2023-03-21T03:49:11.494Z,7.70
2023-03-21T03:51:48.401Z,7.70
2023-03-21T03:54:22.976Z,7.80
2023-03-21T03:56:50.794Z,7.80
2023-03-21T03:59:24.316Z,7.80
2023-03-21T04:01:51.546Z,7.80
2023-03-21T04:04:18.397Z,7.80
2023-03-21T04:06:51.670Z,7.80
2023-03-21T04:09:23.307Z,7.80
2023-03-21T04:11:53.621Z,7.80
2023-03-21T04:14:21.705Z,7.80
2023-03-21T04:16:49.242Z,7.80
2023-03-21T04:19:16.854Z,7.90
2023-03-21T04:21:44.050Z,8.00
2023-03-21T04:24:12.044Z,7.80
2023-03-21T04:26:39.427Z,7.90
2023-03-21T04:29:06.487Z,7.90
2023-03-21T04:31:36.366Z,7.90
2023-03-21T04:34:09.880Z,7.70
2023-03-21T04:36:47.050Z,7.80
2023-03-21T04:39:14.661Z,7.80
2023-03-21T04:41:43.305Z,7.70
2023-03-21T04:44:11.876Z,7.70
2023-03-21T04:46:39.511Z,7.80
2023-03-21T04:49:09.568Z,7.70
2023-03-21T04:51:37.659Z,7.70
2023-03-21T04:54:05.941Z,7.70
2023-03-21T04:56:34.086Z,7.70
2023-03-21T04:59:05.782Z,7.80
2023-03-21T05:01:32.883Z,7.80
2023-03-21T05:04:01.455Z,7.90
2023-03-21T05:06:29.237Z,7.80
2023-03-21T05:09:00.225Z,7.70
2023-03-21T05:11:30.750Z,7.70
2023-03-21T05:13:58.580Z,7.80
2023-03-21T05:16:27.156Z,7.80
2023-03-21T05:18:55.596Z,7.90
2023-03-21T05:21:24.042Z,7.90
2023-03-21T05:23:54.208Z,8.00
2023-03-21T05:26:23.089Z,8.00
2023-03-21T05:28:50.160Z,8.00
2023-03-21T05:31:18.343Z,8.10
2023-03-21T05:33:46.136Z,8.10
2023-03-21T05:36:13.969Z,8.10
2023-03-21T05:38:46.150Z,7.90
2023-03-21T05:41:14.179Z,8.00
2023-03-21T05:43:41.055Z,8.00
2023-03-21T05:46:08.460Z,7.90
2023-03-21T05:48:35.469Z,7.90
2023-03-21T05:51:03.381Z,7.90
2023-03-21T05:53:30.737Z,7.90
2023-03-21T05:55:57.925Z,8.00
2023-03-21T05:58:24.929Z,7.90
2023-03-21T06:00:51.712Z,7.80
2023-03-21T06:03:18.568Z,7.80
2023-03-21T06:05:45.400Z,7.80
2023-03-21T06:08:12.992Z,8.00
2023-03-21T06:10:39.839Z,7.80
2023-03-21T06:13:06.685Z,8.00
2023-03-21T06:15:33.665Z,8.00
2023-03-21T06:18:00.541Z,7.90
2023-03-21T06:20:27.795Z,7.80
2023-03-21T06:22:54.657Z,7.90
2023-03-21T06:25:21.875Z,7.70
2023-03-21T06:27:48.726Z,7.80
2023-03-21T06:30:16.140Z,7.70
2023-03-21T06:32:42.997Z,7.90
2023-03-21T06:35:09.934Z,7.90
2023-03-21T06:37:36.878Z,7.80
2023-03-21T06:40:06.009Z,7.80
2023-03-21T06:42:32.827Z,8.00
2023-03-21T06:44:59.675Z,8.00
2023-03-21T06:47:26.975Z,8.10
2023-03-21T06:49:53.778Z,8.10
2023-03-21T06:52:20.659Z,8.20
2023-03-21T06:54:54.106Z,8.20
2023-03-21T06:57:22.015Z,8.40
2023-03-21T06:59:48.898Z,8.30
2023-03-21T07:02:16.010Z,8.30
2023-03-21T07:04:43.040Z,8.10
2023-03-21T07:07:12.813Z,8.00
2023-03-21T07:09:40.879Z,8.20
2023-03-21T07:12:07.754Z,8.20
2023-03-21T07:14:34.708Z,8.30
2023-03-21T07:17:04.033Z,8.40
2023-03-21T07:19:30.918Z,8.50
2023-03-21T07:21:57.807Z,8.50
2023-03-21T07:24:24.603Z,8.40
2023-03-21T07:26:51.483Z,8.30
2023-03-21T07:29:21.689Z,8.30
2023-03-21T07:31:48.921Z,8.30
2023-03-21T07:34:19.286Z,8.40
2023-03-21T07:36:46.365Z,8.40
2023-03-21T07:39:13.917Z,8.50
2023-03-21T07:41:40.950Z,8.60
2023-03-21T07:44:07.783Z,8.70
2023-03-21T07:46:34.587Z,8.70
2023-03-21T07:49:01.449Z,8.80
2023-03-21T07:51:32.186Z,8.70
2023-03-21T07:53:59.134Z,8.70
2023-03-21T07:56:25.923Z,8.80
2023-03-21T07:58:53.749Z,9.00
2023-03-21T08:01:21.846Z,9.10
2023-03-21T08:03:49.595Z,9.20
2023-03-21T08:06:19.525Z,9.30
2023-03-21T08:08:47.144Z,9.20
2023-03-21T08:11:14.428Z,9.00
2023-03-21T08:13:41.677Z,9.20
2023-03-21T08:16:08.971Z,9.20
2023-03-21T08:18:35.973Z,9.20
2023-03-21T08:21:02.922Z,9.30
2023-03-21T08:23:31.118Z,9.20
2023-03-21T08:25:58.301Z,9.30
2023-03-21T08:28:25.199Z,9.20
2023-03-21T08:30:52.119Z,9.20
2023-03-21T08:33:19.463Z,9.40
2023-03-21T08:35:46.928Z,9.40
2023-03-21T08:38:15.586Z,9.50
2023-03-21T08:40:42.599Z,9.60
2023-03-21T08:43:09.413Z,9.50
2023-03-21T08:45:36.508Z,9.40
2023-03-21T08:48:03.700Z,9.40
2023-03-21T08:50:32.100Z,9.40
2023-03-21T08:52:59.114Z,9.70
2023-03-21T08:55:26.053Z,9.90
2023-03-21T08:57:52.827Z,10.20
2023-03-21T09:00:22.130Z,10.40
2023-03-21T09:02:51.646Z,10.50
2023-03-21T09:05:19.877Z,10.30
2023-03-21T09:07:47.584Z,10.10
2023-03-21T09:10:22.227Z,10.30
2023-03-21T09:12:51.175Z,10.40
2023-03-21T09:15:20.238Z,10.50
2023-03-21T09:17:52.995Z,10.30
2023-03-21T09:20:22.693Z,10.10
2023-03-21T09:22:52.987Z,9.90
2023-03-21T09:25:21.666Z,9.80
2023-03-21T09:27:48.811Z,9.70
2023-03-21T09:30:18.950Z,9.80
2023-03-21T09:32:50.479Z,9.60
2023-03-21T09:35:19.126Z,9.80
2023-03-21T09:37:49.157Z,10.10
2023-03-21T09:40:52.715Z,10.30
2023-03-21T09:43:28.014Z,10.30
2023-03-21T09:46:20.978Z,10.10
2023-03-21T09:49:01.984Z,10.30
2023-03-21T09:51:35.245Z,10.10
2023-03-21T09:54:08.699Z,9.90
2023-03-21T09:56:38.596Z,9.90
2023-03-21T09:59:09.066Z,9.80
2023-03-21T10:01:42.068Z,9.90
2023-03-21T10:04:13.355Z,9.80
2023-03-21T10:06:42.857Z,9.70
2023-03-21T10:09:21.484Z,9.80
2023-03-21T10:11:53.258Z,10.00
2023-03-21T10:14:28.300Z,10.10
2023-03-21T10:17:20.580Z,10.20
2023-03-21T10:19:55.594Z,10.20
2023-03-21T10:22:22.406Z,9.80
2023-03-21T10:24:49.220Z,9.70
2023-03-21T10:27:16.378Z,9.70
2023-03-21T10:29:45.857Z,9.70
2023-03-21T10:32:17.292Z,9.70
2023-03-21T10:35:05.002Z,9.50
2023-03-21T10:37:32.608Z,9.70
2023-03-21T10:39:59.782Z,9.90
2023-03-21T10:42:30.954Z,10.10
2023-03-21T10:44:58.475Z,10.00
2023-03-21T10:47:33.932Z,9.80
2023-03-21T10:50:12.425Z,9.70
2023-03-21T10:52:50.816Z,9.60
2023-03-21T10:55:28.834Z,9.60
2023-03-21T10:58:07.716Z,9.50
2023-03-21T11:00:46.498Z,9.40
2023-03-21T11:03:29.414Z,9.20
2023-03-21T11:06:00.221Z,9.40
2023-03-21T11:08:27.584Z,9.70
2023-03-21T11:10:59.733Z,10.00
2023-03-21T11:13:37.716Z,10.20
2023-03-21T11:16:27.524Z,10.40
2023-03-21T11:19:01.331Z,10.40
2023-03-21T11:21:35.257Z,10.40
2023-03-21T11:24:03.319Z,10.40
2023-03-21T11:26:36.217Z,10.40
2023-03-21T11:29:29.444Z,10.40
2023-03-21T11:32:09.818Z,10.70
2023-03-21T11:34:48.746Z,10.90
2023-03-21T11:37:27.901Z,11.10
2023-03-21T11:39:57.266Z,11.20
2023-03-21T11:42:30.958Z,11.30
2023-03-21T11:45:02.106Z,11.40
2023-03-21T11:47:29.190Z,11.30
2023-03-21T11:50:04.597Z,11.20
2023-03-21T11:52:44.223Z,11.30
2023-03-21T11:55:35.984Z,11.30
2023-03-21T11:58:32.927Z,11.40
2023-03-21T12:01:19.153Z,11.40
2023-03-21T12:04:18.532Z,11.60
2023-03-21T12:07:33.172Z,11.80
2023-03-21T12:10:05.451Z,11.90
2023-03-21T12:12:42.316Z,12.10
2023-03-21T12:15:24.795Z,12.50
2023-03-21T12:18:16.229Z,12.50
2023-03-21T12:20:57.090Z,12.40
2023-03-21T12:23:42.679Z,12.50
2023-03-21T12:26:29.103Z,12.50
2023-03-21T12:29:38.955Z,12.20
2023-03-21T12:32:53.233Z,12.10
2023-03-21T12:36:00.458Z,12.00
2023-03-21T12:39:08.661Z,11.60
2023-03-21T12:42:10.693Z,11.80
2023-03-21T12:44:45.991Z,12.00
2023-03-21T12:47:19.934Z,11.90
2023-03-21T12:49:52.417Z,12.00
2023-03-21T12:52:34.466Z,11.90
2023-03-21T12:55:22.563Z,12.10
2023-03-21T12:57:59.016Z,12.30
2023-03-21T13:00:33.383Z,12.30
2023-03-21T13:03:33.539Z,12.40
2023-03-21T13:06:09.373Z,12.20
2023-03-21T13:09:14.929Z,11.90
2023-03-21T13:11:43.714Z,11.40
2023-03-21T13:14:33.348Z,11.30
2023-03-21T13:17:07.609Z,11.30
2023-03-21T13:19:46.771Z,11.30
2023-03-21T13:22:30.169Z,11.20
2023-03-21T13:25:22.127Z,11.30
2023-03-21T13:28:22.835Z,11.90
2023-03-21T13:33:35.679Z,12.80
2023-03-21T13:36:24.377Z,13.20
2023-03-21T13:38:53.968Z,13.30
2023-03-21T13:41:33.324Z,12.80
2023-03-21T13:44:03.239Z,12.40
2023-03-21T13:46:34.111Z,12.60
2023-03-21T13:49:10.665Z,12.60
2023-03-21T13:51:41.718Z,12.40
2023-03-21T13:54:11.222Z,12.20
2023-03-21T13:56:47.237Z,11.90
2023-03-21T13:59:41.260Z,11.70
2023-03-21T14:02:31.930Z,11.90
2023-03-21T14:05:07.902Z,12.10
2023-03-21T14:07:41.630Z,12.70
2023-03-21T14:10:37.402Z,13.30
2023-03-21T14:13:11.060Z,13.70
2023-03-21T14:15:54.940Z,14.20
2023-03-21T14:18:51.646Z,14.40
2023-03-21T14:21:25.348Z,14.20
2023-03-21T14:24:13.794Z,14.10
2023-03-21T14:29:36.009Z,14.00
2023-03-21T14:32:05.706Z,14.00
2023-03-21T14:34:35.546Z,14.10
2023-03-21T14:37:02.626Z,14.00
2023-03-21T14:39:31.959Z,13.90
2023-03-21T14:42:12.366Z,14.20
2023-03-21T14:44:55.167Z,14.30
2023-03-21T14:47:32.286Z,14.10
2023-03-21T14:50:01.336Z,14.10
2023-03-21T14:52:33.719Z,14.50
2023-03-21T14:55:03.362Z,14.80
2023-03-21T14:57:33.585Z,15.00
2023-03-21T15:00:14.596Z,15.10
2023-03-21T15:02:43.624Z,14.90
2023-03-21T15:05:31.703Z,14.50
2023-03-21T15:08:08.146Z,14.30
2023-03-21T15:10:35.461Z,14.20
2023-03-21T15:13:25.266Z,14.10
2023-03-21T15:15:54.881Z,13.90
2023-03-21T15:18:33.313Z,13.80
2023-03-21T15:21:16.819Z,13.70
2023-03-21T15:23:46.813Z,13.20
2023-03-21T15:26:16.999Z,13.00
2023-03-21T15:28:49.923Z,12.80
2023-03-21T15:31:23.269Z,12.50
2023-03-21T15:33:54.632Z,12.00
2023-03-21T15:36:25.514Z,11.70
2023-03-21T15:38:52.839Z,11.40
2023-03-21T15:41:20.110Z,11.40
2023-03-21T15:43:48.948Z,11.50
2023-03-21T15:46:34.934Z,11.50
2023-03-21T15:49:32.996Z,11.30
2023-03-21T15:52:13.389Z,11.30
2023-03-21T15:54:56.092Z,11.30
2023-03-21T15:57:30.022Z,11.20
2023-03-21T16:00:06.444Z,11.20
2023-03-21T16:02:35.032Z,11.20
2023-03-21T16:05:19.162Z,11.10
2023-03-21T16:07:47.296Z,11.10
2023-03-21T16:10:39.395Z,11.00
2023-03-21T16:13:07.492Z,10.80
2023-03-21T16:15:34.421Z,10.80
2023-03-21T16:18:04.106Z,10.80
2023-03-21T16:20:43.399Z,10.80
2023-03-21T16:23:12.256Z,10.70
2023-03-21T16:25:39.319Z,10.60
2023-03-21T16:28:14.296Z,10.50
2023-03-21T16:30:41.404Z,10.40
2023-03-21T16:33:12.802Z,10.40
2023-03-21T16:35:40.507Z,10.30
2023-03-21T16:38:07.712Z,10.30
2023-03-21T16:40:38.363Z,10.20
2023-03-21T16:43:05.762Z,10.10
2023-03-21T16:45:32.778Z,10.20
2023-03-21T16:48:00.387Z,10.00
2023-03-21T16:50:31.761Z,10.00
2023-03-21T16:52:59.474Z,9.90
2023-03-21T16:55:26.782Z,9.80
2023-03-21T16:57:54.221Z,9.80
2023-03-21T17:00:24.337Z,9.70
2023-03-21T17:02:53.534Z,9.60
2023-03-21T17:05:21.605Z,9.60
2023-03-21T17:07:48.565Z,9.50
2023-03-21T17:10:23.108Z,9.50
2023-03-21T17:12:50.795Z,9.30
2023-03-21T17:15:18.989Z,9.20
2023-03-21T17:17:46.179Z,9.20
2023-03-21T17:20:18.745Z,9.10
2023-03-21T17:22:46.420Z,9.10
2023-03-21T17:25:13.358Z,9.00
2023-03-21T17:27:40.899Z,9.10
2023-03-21T17:30:23.753Z,9.00
2023-03-21T17:32:51.834Z,8.90
2023-03-21T17:35:19.318Z,8.80
2023-03-21T17:37:50.753Z,8.80
2023-03-21T17:40:23.221Z,8.80
2023-03-21T17:42:52.045Z,8.90
2023-03-21T17:45:19.879Z,8.70
2023-03-21T17:47:47.290Z,8.60
2023-03-21T17:50:33.696Z,8.60
2023-03-21T17:53:00.599Z,8.60
2023-03-21T17:55:27.553Z,8.50
2023-03-21T17:57:54.379Z,8.50
2023-03-21T18:00:25.168Z,8.50
2023-03-21T18:02:52.662Z,8.40
2023-03-21T18:05:24.918Z,8.30
2023-03-21T18:10:40.861Z,8.30
2023-03-21T18:13:08.078Z,8.20
2023-03-21T18:15:37.714Z,8.20
2023-03-21T18:18:05.473Z,8.10
2023-03-21T18:23:21.176Z,8.10
2023-03-21T18:25:48.581Z,8.10
2023-03-21T18:28:19.510Z,8.20
2023-03-21T18:33:37.700Z,8.10
2023-03-21T18:36:07.742Z,7.80
2023-03-21T18:38:36.474Z,7.80
2023-03-21T18:41:06.592Z,7.70
2023-03-21T18:46:21.321Z,7.60
2023-03-21T18:48:49.185Z,7.50
2023-03-21T18:51:17.673Z,7.50
2023-03-21T18:53:44.785Z,7.50
2023-03-21T18:56:39.495Z,7.50
2023-03-21T18:58:59.361Z,7.40
2023-03-21T19:01:26.374Z,7.40
2023-03-21T19:04:20.779Z,7.30
2023-03-21T19:06:47.179Z,7.30
2023-03-21T19:09:15.096Z,7.20
2023-03-21T19:11:42.843Z,7.20
2023-03-21T19:14:11.986Z,7.30
2023-03-21T19:17:07.201Z,7.20
2023-03-21T19:19:27.328Z,7.10
2023-03-21T19:21:54.685Z,7.10
2023-03-21T19:24:27.538Z,7.00
2023-03-21T19:26:55.696Z,7.00
2023-03-21T19:29:22.611Z,6.90
2023-03-21T19:31:51.210Z,6.90
2023-03-21T19:34:26.752Z,6.80
2023-03-21T19:36:54.397Z,6.80
2023-03-21T19:39:25.168Z,6.70
2023-03-21T19:41:55.333Z,6.70
2023-03-21T19:44:38.985Z,6.70
2023-03-21T19:47:06.624Z,6.70
2023-03-21T19:49:56.455Z,6.70
2023-03-21T19:52:21.804Z,6.60
2023-03-21T19:54:48.767Z,6.70
2023-03-21T19:57:16.285Z,6.70
2023-03-21T19:59:43.148Z,6.70
2023-03-21T20:02:34.059Z,6.60
2023-03-21T20:04:59.548Z,6.60
2023-03-21T20:07:27.873Z,6.50
2023-03-21T20:09:57.209Z,6.50
2023-03-21T20:12:24.272Z,6.50
2023-03-21T20:14:58.009Z,6.50
2023-03-21T20:17:31.902Z,6.50
2023-03-21T20:19:59.903Z,6.50
2023-03-21T20:22:53.632Z,6.60
2023-03-21T20:25:15.613Z,6.40
2023-03-21T20:27:43.903Z,6.40
2023-03-21T20:30:15.023Z,6.40
2023-03-21T20:32:44.141Z,6.40
2023-03-21T20:35:21.047Z,6.40
2023-03-21T20:38:00.707Z,6.40
2023-03-21T20:40:27.715Z,6.50
2023-03-21T20:43:01.460Z,6.40
2023-03-21T20:45:35.648Z,6.30
2023-03-21T20:48:03.326Z,6.30
2023-03-21T20:50:33.200Z,6.30
2023-03-21T20:53:07.341Z,6.30
2023-03-21T20:55:34.905Z,6.20
2023-03-21T20:58:03.109Z,6.20
2023-03-21T21:00:29.955Z,6.20
2023-03-21T21:02:58.058Z,6.30
2023-03-21T21:05:31.424Z,6.20
2023-03-21T21:08:01.320Z,6.20
2023-03-21T21:10:28.876Z,6.10
2023-03-21T21:12:55.831Z,6.10
2023-03-21T21:15:23.479Z,6.10
2023-03-21T21:18:05.977Z,6.00
2023-03-21T21:20:35.243Z,5.90
2023-03-21T21:23:02.278Z,5.90
2023-03-21T21:25:32.604Z,5.80
2023-03-21T21:28:09.684Z,5.80
2023-03-21T21:30:38.994Z,5.80
2023-03-21T21:33:06.061Z,5.70
2023-03-21T21:35:33.655Z,5.70
2023-03-21T21:38:00.639Z,5.60
2023-03-21T21:40:27.597Z,5.70
2023-03-21T21:42:54.793Z,5.70
2023-03-21T21:45:21.659Z,5.70
2023-03-21T21:47:48.713Z,5.60
2023-03-21T21:50:16.432Z,5.60
2023-03-21T21:52:46.393Z,5.60
2023-03-21T21:55:13.449Z,5.50
2023-03-21T21:57:41.031Z,5.50
2023-03-21T22:00:13.853Z,5.50
2023-03-21T22:02:41.597Z,5.50
2023-03-21T22:05:09.243Z,5.40
2023-03-21T22:07:37.503Z,5.40
2023-03-21T22:10:05.879Z,5.30
2023-03-21T22:12:32.906Z,5.30
2023-03-21T22:14:59.993Z,5.20
2023-03-21T22:17:26.965Z,5.20
2023-03-21T22:20:05.078Z,5.20
2023-03-21T22:22:33.940Z,5.30
2023-03-21T22:25:01.102Z,5.20
2023-03-21T22:27:27.959Z,5.10
2023-03-21T22:29:55.024Z,5.10
2023-03-21T22:32:21.902Z,5.10
2023-03-21T22:34:48.835Z,5.10
2023-03-21T22:37:15.789Z,5.10
2023-03-21T22:39:42.744Z,5.00
2023-03-21T22:42:09.568Z,5.00
2023-03-21T22:44:36.575Z,5.00
2023-03-21T22:47:10.872Z,5.10
2023-03-21T22:49:39.136Z,5.10
2023-03-21T22:52:06.809Z,5.00
2023-03-21T22:54:33.824Z,5.00
2023-03-21T22:57:00.701Z,5.00
2023-03-21T22:59:28.092Z,5.00
2023-03-21T23:01:55.594Z,4.90
2023-03-21T23:04:23.719Z,4.90
2023-03-21T23:06:50.772Z,4.90
2023-03-21T23:09:17.774Z,4.90
2023-03-21T23:11:48.856Z,4.90
2023-03-21T23:14:17.139Z,4.90
2023-03-21T23:16:45.175Z,4.90
2023-03-21T23:19:12.430Z,4.80
2023-03-21T23:21:39.958Z,4.80
2023-03-21T23:24:07.896Z,4.70
2023-03-21T23:26:35.284Z,4.70
2023-03-21T23:29:02.493Z,4.70
2023-03-21T23:31:29.473Z,4.70
2023-03-21T23:33:58.953Z,4.70
2023-03-21T23:36:25.758Z,4.60
2023-03-21T23:38:52.765Z,4.60
2023-03-21T23:41:22.782Z,4.60
2023-03-21T23:43:49.922Z,4.60
2023-03-21T23:46:18.278Z,4.60
2023-03-21T23:48:46.304Z,4.60
2023-03-21T23:51:15.993Z,4.50
2023-03-21T23:53:44.418Z,4.50
2023-03-21T23:56:17.317Z,4.40
2023-03-21T23:58:44.595Z,4.30
